Terminal Aerodrome Forecast
Issued by NWS

Home | Current Version | Previous Version | Text Only | Print | Product List | Glossary On
Versions: 1 2 3 4 5 6 7 8 9 10 11 12 13 14 15 16 17
270
FTUS41 KCLE 060525
TAFFDY
TAF
KFDY 060525Z 0606/0706 10005KT P6SM BKN150
     FM061100 08008KT P6SM OVC050
      TEMPO 0612/0613 4SM -RASN OVC025
     FM061300 08012KT 3SM -RA OVC025
     FM061500 09010KT 2SM -RA BR OVC008
     FM062200 27010KT P6SM OVC025=

USA.gov is the U.S. government's official web portal to all federal, state and local government web resources and services.